Illizi, Algeria
Current Conditions -  °F | °C
As of 9:00 AM on Wednesday 22 Oct 2014 (Local Time) from DAAP Reporting Station
Clear Clear  
Wind Chill: 24°   Ceiling: Unl
Heat Index: 24°   Visibility: 6mi
Dew Point:   Wind: 7mph
Humidity: 34%   Direction: 210°SSW
Pressure: 30.12"   Gusts: NA
Location:  26.5°N, 8.42°E
Report Text: DAAP 220800Z 21006KT CAVOK 24/07 Q1020
Loading
Personal Weather Stations






























Interactive Weather Map
Tropical Storm Tracking
New forecast layout! Learn more

10-Day Weather Forecast

Advertisements
Track Severe Weather on mobile